Time;durP1;ratioP1;P1;durP2;ratioP2;P2;SDS_P1;SDS_P2;PMS_P1;PMS_P2;Temp;Humidity;BMP_temperature;BMP_pressure;BME280_temperature;BME280_humidity;BME280_pressure;Samples;Min_cycle;Max_cycle;Signal;HPM_P1;HPM_P2
2022/12/21 00:01:14;;;;;;;0.40;0.40;;;;;;;9.68;76.29;101158.56;5084917;28;20049;-82
2022/12/21 00:03:42;;;;;;;0.10;0.10;;;;;;;9.58;76.19;101159.50;5077734;28;20020;-82
2022/12/21 00:06:10;;;;;;;0.38;0.38;;;;;;;9.54;75.91;101171.03;5078554;28;20064;-82
2022/12/21 00:08:41;;;;;;;0.20;0.20;;;;;;;9.51;76.19;101157.84;5081985;28;20019;-82
2022/12/21 00:11:08;;;;;;;0.20;0.20;;;;;;;9.48;76.24;101152.59;5077903;28;20032;-82
2022/12/21 00:13:34;;;;;;;0.20;0.20;;;;;;;9.46;76.31;101151.72;5084948;28;20024;-82
2022/12/21 00:16:03;;;;;;;0.50;0.50;;;;;;;9.43;76.42;101162.34;5079853;28;20127;-82
2022/12/21 00:18:32;;;;;;;0.15;0.15;;;;;;;9.37;76.59;101155.31;5077872;28;20048;-81
2022/12/21 00:21:00;;;;;;;0.35;0.35;;;;;;;9.36;76.48;101150.97;5082135;28;20049;-82
2022/12/21 00:23:27;;;;;;;0.20;0.20;;;;;;;9.35;76.63;101157.13;5080840;28;20021;-82
2022/12/21 00:25:54;;;;;;;0.20;0.20;;;;;;;9.30;76.39;101146.59;5083028;28;20025;-83
2022/12/21 00:28:21;;;;;;;0.40;0.40;;;;;;;9.25;76.67;101137.84;5077591;28;20029;-83
2022/12/21 00:30:47;;;;;;;0.95;0.95;;;;;;;9.21;76.62;101147.56;5079448;28;20056;-83
2022/12/21 00:33:13;;;;;;;0.20;0.20;;;;;;;9.16;76.36;101146.72;5079975;28;20547;-83
2022/12/21 00:35:45;;;;;;;0.20;0.20;;;;;;;9.13;76.47;101140.59;5077240;28;20403;-83
2022/12/21 00:38:11;;;;;;;0.20;0.20;;;;;;;9.11;76.62;101139.72;5078430;28;20118;-83
2022/12/21 00:40:37;;;;;;;0.17;0.17;;;;;;;9.10;76.70;101143.25;5074496;28;20085;-84
2022/12/21 00:43:03;;;;;;;0.35;0.35;;;;;;;9.09;76.15;101138.88;5081768;28;20032;-83
2022/12/21 00:45:29;;;;;;;0.13;0.13;;;;;;;9.04;76.15;101137.13;5076349;28;20067;-84
2022/12/21 00:47:56;;;;;;;0.10;0.10;;;;;;;9.02;76.45;101146.84;5076087;28;20028;-83
2022/12/21 00:50:22;;;;;;;0.82;0.82;;;;;;;8.97;76.14;101146.03;5082963;28;20032;-83
2022/12/21 00:52:49;;;;;;;0.10;0.10;;;;;;;8.93;76.07;101141.63;5081593;28;20029;-83
2022/12/21 00:55:15;;;;;;;0.10;0.10;;;;;;;8.90;75.85;101145.19;5084991;28;20036;-83
2022/12/21 00:57:41;;;;;;;0.20;0.20;;;;;;;8.86;76.13;101146.09;5096437;28;20039;-82
2022/12/21 01:00:09;;;;;;;0.10;0.10;;;;;;;8.83;75.71;101147.91;5087100;28;20049;-81
2022/12/21 01:02:36;;;;;;;0.10;0.10;;;;;;;8.81;75.75;101141.72;5094588;28;20129;-81
2022/12/21 01:05:03;;;;;;;0.20;0.20;;;;;;;8.76;76.06;101140.91;5089832;28;20015;-82
2022/12/21 01:07:29;;;;;;;0.10;0.10;;;;;;;8.73;75.79;101147.09;5098860;28;20021;-82
2022/12/21 01:09:55;;;;;;;0.10;0.10;;;;;;;8.71;75.84;101139.19;5084023;28;20033;-82
2022/12/21 01:12:21;;;;;;;0.10;0.10;;;;;;;8.69;75.45;101140.06;5082547;28;20048;-82
2022/12/21 01:14:47;;;;;;;0.13;0.13;;;;;;;8.68;75.89;101139.19;5084448;28;20043;-80
2022/12/21 01:17:13;;;;;;;0.20;0.20;;;;;;;8.65;76.02;101139.22;5088271;28;20073;-80
2022/12/21 01:19:39;;;;;;;0.10;0.10;;;;;;;8.63;76.02;101143.63;5081100;28;20032;-80
2022/12/21 01:22:05;;;;;;;0.17;0.17;;;;;;;8.60;75.69;101148.06;5084179;28;20359;-80
2022/12/21 01:24:31;;;;;;;0.20;0.20;;;;;;;8.56;76.09;101142.81;5083980;28;20047;-82
2022/12/21 01:26:58;;;;;;;0.20;0.20;;;;;;;8.52;76.18;101146.38;5076652;28;20027;-80
2022/12/21 01:29:24;;;;;;;0.20;0.20;;;;;;;8.48;75.85;101149.03;5078471;28;20097;-81
2022/12/21 01:31:50;;;;;;;0.13;0.13;;;;;;;8.42;75.51;101150.78;5085979;28;20082;-80
2022/12/21 01:34:16;;;;;;;0.20;0.20;;;;;;;8.37;76.04;101151.69;5086201;28;20024;-80
2022/12/21 01:36:43;;;;;;;0.10;0.10;;;;;;;8.33;75.94;101153.47;5081038;28;20040;-79
2022/12/21 01:39:09;;;;;;;0.10;0.10;;;;;;;8.30;75.75;101157.88;5084289;28;20051;-78
2022/12/21 01:41:35;;;;;;;0.10;0.10;;;;;;;8.29;75.68;101156.13;5078427;28;20032;-79
2022/12/21 01:44:03;;;;;;;0.10;0.10;;;;;;;8.30;76.14;101163.16;5076603;28;20103;-80
2022/12/21 01:46:34;;;;;;;0.17;0.17;;;;;;;8.32;76.29;101170.19;5075769;28;20115;-80
2022/12/21 01:49:11;;;;;;;0.20;0.20;;;;;;;8.36;75.86;101173.69;5084961;28;20032;-80
2022/12/21 01:51:38;;;;;;;0.13;0.13;;;;;;;8.38;76.03;101172.78;5076338;28;20032;-81
2022/12/21 01:54:12;;;;;;;0.10;0.10;;;;;;;8.42;76.10;101166.63;5080095;28;20025;-80
2022/12/21 01:56:40;;;;;;;0.28;0.28;;;;;;;8.43;76.45;101168.38;5077842;28;20107;-81
2022/12/21 01:59:14;;;;;;;0.10;0.10;;;;;;;8.48;76.36;101170.16;5079903;28;20089;-80
2022/12/21 02:01:40;;;;;;;0.10;0.10;;;;;;;8.52;76.45;101170.13;5081949;28;20025;-81
2022/12/21 02:04:07;;;;;;;0.93;0.90;;;;;;;8.56;76.49;101163.03;5080684;28;20025;-81
2022/12/21 02:06:40;;;;;;;0.10;0.10;;;;;;;8.61;76.79;101161.28;5075771;28;20024;-81
2022/12/21 02:09:07;;;;;;;0.10;0.10;;;;;;;8.60;76.77;101153.34;5075401;28;20542;-80
2022/12/21 02:11:33;;;;;;;0.10;0.10;;;;;;;8.62;76.39;101154.22;5071991;28;20052;-81
2022/12/21 02:13:59;;;;;;;0.10;0.10;;;;;;;8.61;76.64;101155.09;5073704;28;20031;-81
2022/12/21 02:16:39;;;;;;;0.20;0.20;;;;;;;8.64;76.66;101163.88;5077555;28;20028;-81
2022/12/21 02:22:13;;;;;;;0.10;0.10;;;;;;;8.62;76.36;101157.72;5075656;28;20390;-85
2022/12/21 02:25:12;;;;;;;0.10;0.10;;;;;;;8.64;76.71;101155.09;5078319;28;20028;-84
2022/12/21 02:38:11;;;;;;;0.10;0.10;;;;;;;8.57;76.78;101143.66;5132093;27;20403;-84
2022/12/21 02:40:49;;;;;;;0.10;0.10;;;;;;;8.54;76.74;101133.16;5116496;28;20031;-84
2022/12/21 02:46:08;;;;;;;0.10;0.10;;;;;;;8.57;76.78;101133.09;5141851;27;20194;-81
2022/12/21 02:48:39;;;;;;;;;;;;;;;8.64;76.70;101140.09;5129149;27;20032;-80
2022/12/21 02:51:15;;;;;;;0.95;0.95;;;;;;;8.61;76.48;101139.25;5128220;27;20002;-81
2022/12/21 02:53:42;;;;;;;0.20;0.20;;;;;;;8.56;76.71;101147.19;5133705;27;20114;-80
2022/12/21 02:56:21;;;;;;;0.10;0.10;;;;;;;8.64;76.39;101144.53;5136655;28;20031;-82
2022/12/21 02:59:40;;;;;;;0.10;0.10;;;;;;;8.69;76.70;101150.66;5129525;28;20034;-83
2022/12/21 03:03:47;;;;;;;0.20;0.20;;;;;;;8.70;76.59;101147.97;5120568;28;20028;-82
2022/12/21 03:06:00;;;;;;;0.10;0.10;;;;;;;8.69;76.83;101138.31;5096769;28;20082;-80
2022/12/21 03:08:42;;;;;;;0.10;0.10;;;;;;;8.69;76.92;101148.88;5133524;27;20032;-80
2022/12/21 03:11:08;;;;;;;0.30;0.30;;;;;;;8.65;76.61;101141.88;5131837;27;20091;-81
2022/12/21 03:13:53;;;;;;;0.40;0.40;;;;;;;8.72;77.03;101145.31;5114427;28;20036;-81
2022/12/21 03:16:44;;;;;;;0.30;0.30;;;;;;;8.72;76.82;101135.66;5123320;28;20310;-81
2022/12/21 03:19:39;;;;;;;0.13;0.13;;;;;;;8.77;77.10;101134.72;5133293;27;20443;-81
2022/12/21 03:22:16;;;;;;;0.20;0.20;;;;;;;8.79;76.98;101138.25;5123043;28;20191;-81
2022/12/21 03:24:52;;;;;;;0.20;0.20;;;;;;;8.80;77.03;101137.34;5126196;27;20023;-81
2022/12/21 03:27:24;;;;;;;0.10;0.10;;;;;;;8.86;77.22;101134.63;5118996;28;20039;-81
2022/12/21 03:29:59;;;;;;;0.30;0.30;;;;;;;8.89;76.94;101139.91;5122253;28;20654;-82
2022/12/21 03:32:40;;;;;;;1.83;1.75;;;;;;;8.89;77.50;101124.94;5124767;28;20035;-81
2022/12/21 03:35:21;;;;;;;0.28;0.28;;;;;;;8.94;77.05;101135.47;5130576;27;20084;-81
2022/12/21 03:37:49;;;;;;;0.13;0.13;;;;;;;8.91;77.18;101122.28;5123322;28;20039;-80
2022/12/21 03:40:24;;;;;;;0.20;0.20;;;;;;;8.95;77.38;101128.41;5124836;27;20030;-80
2022/12/21 03:43:05;;;;;;;0.20;0.20;;;;;;;8.96;77.17;101123.13;5128377;27;20540;-81
2022/12/21 03:45:39;;;;;;;5.33;1.03;;;;;;;8.95;77.42;101124.00;5117567;28;20031;-80
2022/12/21 03:48:15;;;;;;;0.10;0.10;;;;;;;8.96;77.25;101133.69;5120820;28;20016;-80
2022/12/21 03:50:46;;;;;;;0.10;0.10;;;;;;;8.98;77.25;101129.25;5118387;28;20099;-81
2022/12/21 03:56:04;;;;;;;0.15;0.15;;;;;;;8.99;77.12;101120.44;5111105;27;1174013;-81
2022/12/21 03:58:31;;;;;;;0.20;0.20;;;;;;;8.99;77.42;101120.44;5132609;28;20031;-82
2022/12/21 04:01:27;;;;;;;0.20;0.20;;;;;;;9.05;77.43;101109.81;5128985;27;20028;-82
2022/12/21 04:04:01;;;;;;;0.20;0.20;;;;;;;9.02;77.20;101108.97;5131512;27;20028;-83
2022/12/21 04:06:32;;;;;;;0.20;0.20;;;;;;;9.00;77.55;101111.63;5119258;28;20034;-81
2022/12/21 04:08:59;;;;;;;0.10;0.10;;;;;;;8.99;77.54;101115.16;5128822;27;20538;-81
2022/12/21 04:14:20;;;;;;;0.40;0.40;;;;;;;8.97;77.44;101116.06;5130731;28;20065;-83
2022/12/21 04:16:47;;;;;;;0.60;0.60;;;;;;;8.98;77.24;101121.31;5145119;27;20031;-83
2022/12/21 04:21:59;;;;;;;0.65;0.65;;;;;;;8.97;77.55;101111.66;5129919;28;20401;-80
2022/12/21 04:29:57;;;;;;;0.15;0.15;;;;;;;8.96;77.60;101109.91;5116662;28;20116;-83
2022/12/21 04:32:23;;;;;;;0.10;0.10;;;;;;;8.97;77.75;101101.09;5123293;28;20552;-83
2022/12/21 04:34:49;;;;;;;0.20;0.20;;;;;;;8.96;77.56;101107.28;5123771;28;20485;-83
2022/12/21 04:37:31;;;;;;;0.20;0.20;;;;;;;8.92;77.25;101102.00;5121842;28;20020;-83
2022/12/21 04:39:58;;;;;;;0.40;0.40;;;;;;;8.95;77.32;101120.47;5124554;28;20485;-81
2022/12/21 04:42:24;;;;;;;0.20;0.20;;;;;;;8.91;77.68;101117.00;5117294;27;20053;-81
2022/12/21 04:44:50;;;;;;;0.40;0.40;;;;;;;8.93;77.59;101114.34;5129800;27;20019;-84
2022/12/21 04:47:17;;;;;;;0.20;0.20;;;;;;;8.92;77.81;101113.44;5121950;27;20024;-84
2022/12/21 04:49:43;;;;;;;0.98;0.90;;;;;;;8.92;77.32;101113.44;5125154;28;20505;-85
2022/12/21 04:52:09;;;;;;;0.60;0.60;;;;;;;8.95;77.42;101120.47;5117017;28;20031;-84
2022/12/21 04:54:35;;;;;;;0.10;0.10;;;;;;;8.95;77.37;101117.81;5129359;28;20039;-83
2022/12/21 04:57:01;;;;;;;0.17;0.17;;;;;;;8.95;77.35;101116.09;5122252;28;20035;-83
2022/12/21 04:59:27;;;;;;;0.32;0.32;;;;;;;8.97;77.56;101111.66;5117356;28;20508;-83
2022/12/21 05:01:53;;;;;;;0.30;0.30;;;;;;;8.93;77.55;101103.78;5118849;28;20043;-83
2022/12/21 05:04:19;;;;;;;0.50;0.50;;;;;;;8.95;77.30;101108.16;5123162;28;20016;-80
2022/12/21 05:06:46;;;;;;;0.30;0.30;;;;;;;8.99;77.67;101104.59;5106648;28;20488;-83
2022/12/21 05:09:13;;;;;;;0.40;0.40;;;;;;;9.03;77.44;101122.19;5102828;28;20080;-83
2022/12/21 05:11:39;;;;;;;1.10;1.10;;;;;;;9.00;77.58;101114.28;5113717;28;20032;-82
2022/12/21 05:14:05;;;;;;;0.98;0.75;;;;;;;9.02;77.78;101103.69;5111487;28;20027;-81
2022/12/21 05:16:31;;;;;;;0.50;0.50;;;;;;;9.03;78.03;101100.16;5114582;28;20032;-81
2022/12/21 05:18:57;;;;;;;0.40;0.40;;;;;;;9.05;77.89;101101.03;5103224;28;20034;-80
2022/12/21 05:21:24;;;;;;;0.10;0.10;;;;;;;9.04;77.96;101102.78;5107980;28;20031;-80
2022/12/21 05:23:50;;;;;;;0.10;0.10;;;;;;;9.05;77.63;101107.16;5107912;28;20096;-81
2022/12/21 05:26:17;;;;;;;1.50;1.40;;;;;;;9.06;77.85;101105.41;5117636;28;20035;-80
2022/12/21 05:28:45;;;;;;;3.08;2.83;;;;;;;9.04;77.47;101113.34;5107130;28;20482;-81
2022/12/21 05:31:12;;;;;;;1.95;0.98;;;;;;;9.05;77.76;101114.22;5106429;28;20075;-80
2022/12/21 05:33:38;;;;;;;0.25;0.25;;;;;;;9.04;78.20;101102.78;5105642;28;20073;-80
2022/12/21 05:36:06;;;;;;;0.10;0.10;;;;;;;9.07;77.76;101099.22;5106975;28;20526;-80
2022/12/21 05:38:32;;;;;;;0.10;0.10;;;;;;;9.07;78.01;101100.13;5097038;28;20039;-79
2022/12/21 05:40:58;;;;;;;0.43;0.43;;;;;;;9.07;78.07;101096.56;5108264;28;20416;-80
2022/12/21 05:43:25;;;;;;;0.10;0.10;;;;;;;9.07;77.88;101109.78;5104078;28;20107;-80
2022/12/21 05:45:52;;;;;;;0.70;0.65;;;;;;;9.09;78.01;101104.50;5116274;28;20087;-81
2022/12/21 05:48:18;;;;;;;0.30;0.30;;;;;;;9.09;78.16;101104.50;5115586;27;20102;-80
2022/12/21 05:50:44;;;;;;;1.70;1.13;;;;;;;9.07;78.22;101091.28;5104151;28;20034;-80
2022/12/21 05:53:11;;;;;;;0.10;0.10;;;;;;;9.04;78.03;101097.47;5100545;28;20099;-80
2022/12/21 05:55:37;;;;;;;0.47;0.47;;;;;;;9.12;77.99;101099.19;5109683;28;20052;-80
2022/12/21 05:58:03;;;;;;;0.30;0.30;;;;;;;9.13;78.04;101096.50;5104776;28;20034;-81
2022/12/21 06:00:32;;;;;;;1.10;1.10;;;;;;;9.14;78.23;101097.41;5107773;28;20032;-82
2022/12/21 06:02:58;;;;;;;1.25;1.25;;;;;;;9.13;77.95;101091.22;5106450;28;20034;-82
2022/12/21 06:05:24;;;;;;;1.25;1.25;;;;;;;9.17;77.99;101092.06;5114220;28;20015;-81
2022/12/21 06:07:50;;;;;;;0.20;0.20;;;;;;;9.15;77.91;101085.94;5106422;28;20050;-82
2022/12/21 06:10:16;;;;;;;0.30;0.30;;;;;;;9.20;78.06;101086.78;5104589;28;20109;-81
2022/12/21 06:12:42;;;;;;;2.40;0.90;;;;;;;9.22;78.18;101085.88;5114197;28;20023;-80
2022/12/21 06:15:09;;;;;;;1.00;1.00;;;;;;;9.20;78.10;101087.63;5110840;28;20028;-81
2022/12/21 06:17:35;;;;;;;0.50;0.50;;;;;;;9.19;77.87;101092.94;5113150;28;20024;-80
2022/12/21 06:20:01;;;;;;;0.43;0.43;;;;;;;9.18;78.10;101093.84;5112287;28;20035;-80
2022/12/21 06:22:27;;;;;;;0.52;0.52;;;;;;;9.15;78.41;101083.31;5103441;28;20028;-80
2022/12/21 06:24:53;;;;;;;0.25;0.25;;;;;;;9.14;78.20;101084.19;5101241;28;20276;-82
2022/12/21 06:27:19;;;;;;;0.45;0.45;;;;;;;9.15;77.93;101099.16;5103988;28;20095;-82
2022/12/21 06:29:45;;;;;;;0.20;0.20;;;;;;;9.11;78.04;101087.75;5112677;28;20051;-80
2022/12/21 06:32:11;;;;;;;0.20;0.20;;;;;;;9.10;77.83;101086.00;5102584;28;20043;-80
2022/12/21 06:34:37;;;;;;;0.43;0.43;;;;;;;9.14;77.91;101084.19;5097113;28;20036;-82
2022/12/21 06:37:03;;;;;;;0.70;0.65;;;;;;;9.13;77.99;101071.84;5110612;28;20058;-80
2022/12/21 06:39:30;;;;;;;0.30;0.30;;;;;;;9.13;78.13;101085.06;5105101;28;20028;-80
2022/12/21 06:41:56;;;;;;;0.32;0.32;;;;;;;9.13;78.00;101079.78;5096893;28;20039;-80
2022/12/21 06:44:22;;;;;;;1.60;0.95;;;;;;;9.13;77.83;101077.16;5113153;28;20019;-79
2022/12/21 06:46:48;;;;;;;1.02;1.02;;;;;;;9.11;78.12;101081.56;5107149;28;20036;-80
2022/12/21 06:49:14;;;;;;;0.15;0.15;;;;;;;9.10;77.82;101090.38;5105303;28;20035;-80
2022/12/21 06:51:40;;;;;;;0.63;0.63;;;;;;;9.02;77.74;101091.34;5103001;28;20027;-81
2022/12/21 06:54:09;;;;;;;0.38;0.38;;;;;;;9.04;78.25;101102.78;5111908;28;20082;-81
2022/12/21 06:56:35;;;;;;;0.17;0.17;;;;;;;9.04;77.97;101094.84;5105186;28;20053;-79
2022/12/21 06:59:02;;;;;;;0.28;0.28;;;;;;;9.03;78.01;101090.47;5111108;28;20038;-82
2022/12/21 07:01:31;;;;;;;0.20;0.20;;;;;;;9.01;78.12;101097.53;5101399;28;20035;-79
2022/12/21 07:03:57;;;;;;;4.15;1.10;;;;;;;9.00;78.09;101116.91;5107323;28;20049;-79
2022/12/21 07:06:25;;;;;;;3.20;2.28;;;;;;;8.98;77.76;101118.69;5102812;28;20032;-83
2022/12/21 07:08:51;;;;;;;0.25;0.25;;;;;;;8.98;77.91;101120.47;5103791;28;20050;-83
2022/12/21 07:11:21;;;;;;;0.30;0.30;;;;;;;8.91;78.29;101130.22;5097510;28;20032;-82
2022/12/21 07:13:48;;;;;;;1.05;1.02;;;;;;;8.95;78.27;101128.41;5106736;28;20095;-82
2022/12/21 07:16:16;;;;;;;0.30;0.30;;;;;;;8.97;77.99;101132.81;5103969;28;20028;-82
2022/12/21 07:18:42;;;;;;;6.75;3.70;;;;;;;8.95;78.35;101133.69;5124243;28;20035;-81
2022/12/21 07:21:12;;;;;;;0.20;0.20;;;;;;;8.99;78.19;101135.44;5115498;28;20035;-81
2022/12/21 07:23:40;;;;;;;0.57;0.50;;;;;;;8.95;78.15;101139.88;5125605;28;20059;-82
2022/12/21 07:26:10;;;;;;;0.20;0.20;;;;;;;8.89;78.02;101132.84;5132569;28;20036;-81
2022/12/21 07:28:37;;;;;;;1.85;0.85;;;;;;;8.91;78.03;101143.44;5118607;28;20028;-81
2022/12/21 07:31:07;;;;;;;0.10;0.10;;;;;;;8.90;77.95;101136.38;5121112;28;20032;-81
2022/12/21 07:33:34;;;;;;;0.22;0.22;;;;;;;8.90;77.93;101136.38;5105592;28;20059;-81
2022/12/21 07:36:01;;;;;;;0.40;0.40;;;;;;;8.84;77.99;101126.72;5107427;28;20106;-81
2022/12/21 07:38:29;;;;;;;1.60;1.40;;;;;;;8.87;77.89;101115.25;5105687;28;20031;-81
2022/12/21 07:40:57;;;;;;;0.20;0.20;;;;;;;8.85;77.84;101115.28;5102292;28;20034;-81
2022/12/21 07:43:24;;;;;;;0.20;0.20;;;;;;;8.84;78.17;101123.22;5114175;28;20046;-81
2022/12/21 07:45:51;;;;;;;0.20;0.20;;;;;;;8.81;77.84;101121.50;5124744;28;20011;-79
2022/12/21 07:48:17;;;;;;;0.20;0.20;;;;;;;8.73;77.92;101118.91;5126283;28;20446;-80
2022/12/21 07:50:47;;;;;;;0.65;0.65;;;;;;;8.70;78.17;101113.63;5125053;28;20082;-82
2022/12/21 07:53:14;;;;;;;0.50;0.50;;;;;;;8.69;77.88;101111.03;5111919;28;20028;-81
2022/12/21 07:55:40;;;;;;;0.77;0.77;;;;;;;8.66;78.21;101114.56;5109422;28;20042;-83
2022/12/21 07:58:06;;;;;;;0.73;0.73;;;;;;;8.60;78.01;101105.78;5111627;28;20039;-83
2022/12/21 08:00:32;;;;;;;0.10;0.10;;;;;;;8.58;77.82;101119.00;5103676;28;20047;-81
2022/12/21 08:02:59;;;;;;;0.22;0.22;;;;;;;8.53;78.11;101118.19;5110917;28;20021;-81
2022/12/21 08:05:25;;;;;;;0.28;0.28;;;;;;;8.50;77.57;101120.81;5108527;28;20035;-81
2022/12/21 08:07:52;;;;;;;0.85;0.85;;;;;;;8.46;77.84;101113.78;5109851;28;20027;-82
2022/12/21 08:10:18;;;;;;;2.70;0.80;;;;;;;8.42;77.54;101123.50;5111606;28;20126;-84
2022/12/21 08:12:44;;;;;;;0.20;0.20;;;;;;;8.38;77.75;101122.63;5108702;28;20081;-80
2022/12/21 08:15:11;;;;;;;1.00;1.00;;;;;;;8.36;78.16;101124.41;5110416;28;20397;-80
2022/12/21 08:17:38;;;;;;;0.25;0.25;;;;;;;8.37;78.18;101131.47;5099050;28;20028;-82
2022/12/21 08:20:07;;;;;;;1.65;1.17;;;;;;;8.38;78.05;101133.19;5106113;28;20611;-82
2022/12/21 08:22:33;;;;;;;0.30;0.30;;;;;;;8.40;78.18;101131.44;5112457;28;20028;-85
2022/12/21 08:25:00;;;;;;;0.20;0.20;;;;;;;8.42;78.12;101140.22;5106583;28;20020;-84
2022/12/21 08:27:26;;;;;;;0.10;0.10;;;;;;;8.47;78.19;101144.63;5110699;28;20024;-84
2022/12/21 08:29:52;;;;;;;0.52;0.52;;;;;;;8.52;77.84;101140.19;5110621;28;20220;-84
2022/12/21 08:32:20;;;;;;;0.20;0.20;;;;;;;8.52;77.83;101140.19;5111063;28;20018;-84
2022/12/21 08:34:46;;;;;;;0.28;0.28;;;;;;;8.55;77.48;101134.91;5113734;28;20016;-80
2022/12/21 08:37:13;;;;;;;1.65;1.48;;;;;;;8.57;77.65;101139.28;5117898;28;20091;-78
2022/12/21 08:39:39;;;;;;;0.20;0.20;;;;;;;8.59;77.51;101133.97;5119301;28;20075;-80
2022/12/21 08:42:05;;;;;;;0.30;0.30;;;;;;;8.59;77.43;101128.69;5121665;28;20027;-81
2022/12/21 08:44:32;;;;;;;0.38;0.38;;;;;;;8.61;77.63;101134.84;5118047;28;20024;-80
2022/12/21 08:46:58;;;;;;;0.80;0.77;;;;;;;8.61;77.98;101140.13;5121407;27;20511;-79
2022/12/21 08:49:24;;;;;;;0.22;0.22;;;;;;;8.60;78.02;101133.09;5118135;28;20035;-80
2022/12/21 08:51:50;;;;;;;0.68;0.68;;;;;;;8.58;78.08;101133.13;5113068;28;20048;-79
2022/12/21 08:54:17;;;;;;;0.10;0.10;;;;;;;8.58;77.55;101134.88;5126611;28;20020;-83
2022/12/21 08:56:43;;;;;;;0.75;0.75;;;;;;;8.57;78.22;101134.00;5117796;28;20596;-82
2022/12/21 08:59:09;;;;;;;0.25;0.25;;;;;;;8.57;77.71;101130.47;5103732;28;20027;-83
2022/12/21 09:01:36;;;;;;;0.20;0.20;;;;;;;8.54;77.87;101128.72;5097743;28;20056;-82
2022/12/21 09:04:03;;;;;;;0.25;0.25;;;;;;;8.54;78.00;101125.22;5096917;28;20063;-82
2022/12/21 09:06:29;;;;;;;0.10;0.10;;;;;;;8.56;78.03;101121.69;5094331;28;20130;-82
2022/12/21 09:08:56;;;;;;;0.20;0.20;;;;;;;8.55;77.85;101121.69;5100890;28;20498;-82
2022/12/21 09:11:23;;;;;;;0.20;0.20;;;;;;;8.56;78.20;101123.41;5099353;28;20035;-82
2022/12/21 09:13:50;;;;;;;0.30;0.30;;;;;;;8.61;78.53;101116.38;5106970;28;20028;-82
2022/12/21 09:16:19;;;;;;;0.20;0.20;;;;;;;8.68;78.20;101110.13;5104384;28;20060;-82
2022/12/21 09:18:46;;;;;;;0.30;0.30;;;;;;;8.70;77.97;101121.56;5108799;28;20111;-81
2022/12/21 09:21:15;;;;;;;0.80;0.80;;;;;;;8.69;78.28;101133.03;5096112;28;20032;-82
2022/12/21 09:23:41;;;;;;;0.20;0.20;;;;;;;8.69;78.07;101126.88;5110982;28;20024;-82
2022/12/21 09:26:08;;;;;;;0.15;0.15;;;;;;;8.65;78.47;101120.72;5116800;28;20047;-82
2022/12/21 09:28:35;;;;;;;2.35;1.10;;;;;;;8.62;78.27;101128.66;5109810;28;20532;-82
2022/12/21 09:31:19;;;;;;;0.95;0.95;;;;;;;8.65;78.04;101126.00;5107493;28;20034;-82
2022/12/21 09:33:45;;;;;;;0.57;0.57;;;;;;;8.58;78.19;101124.28;5108705;28;20015;-82
2022/12/21 09:36:13;;;;;;;0.45;0.45;;;;;;;8.53;78.30;101121.69;5104552;27;20032;-81
2022/12/21 09:38:40;;;;;;;0.30;0.30;;;;;;;8.53;77.82;101120.81;5098095;28;20386;-82
2022/12/21 09:44:07;;;;;;;0.52;0.52;;;;;;;8.59;78.20;101107.56;5071126;28;20383;-81
2022/12/21 09:46:38;;;;;;;0.80;0.80;;;;;;;8.61;78.32;101112.84;5070804;28;20086;-81
2022/12/21 09:49:11;;;;;;;1.08;1.08;;;;;;;8.64;78.06;101113.69;5062657;28;20029;-81
2022/12/21 09:51:37;;;;;;;0.30;0.30;;;;;;;8.66;78.42;101111.03;5053830;28;20053;-80
2022/12/21 09:54:12;;;;;;;0.73;0.73;;;;;;;8.70;78.15;101112.78;5051580;28;20083;-81
2022/12/21 09:56:43;;;;;;;1.10;1.10;;;;;;;8.72;78.28;101113.63;5045500;28;20064;-81
2022/12/21 09:59:14;;;;;;;0.10;0.10;;;;;;;8.73;78.24;101108.34;5059300;28;20060;-81
2022/12/21 10:05:00;;;;;;;0.70;0.57;;;;;;;8.80;78.15;101124.13;5117217;27;1186373;-81
2022/12/21 10:10:34;;;;;;;0.10;0.10;;;;;;;8.80;77.94;101117.09;5071358;28;20454;-81
2022/12/21 10:16:01;;;;;;;0.30;0.30;;;;;;;8.79;78.02;101122.41;5069807;28;20480;-81
2022/12/21 10:21:33;;;;;;;2.65;2.55;;;;;;;8.84;78.18;101137.31;5124873;27;20406;-81
2022/12/21 10:24:02;;;;;;;0.32;0.32;;;;;;;8.88;78.54;101136.41;5109776;28;20082;-81
2022/12/21 10:26:32;;;;;;;0.20;0.20;;;;;;;8.93;78.54;101133.72;5113071;28;20024;-81
2022/12/21 10:31:40;;;;;;;2.35;2.25;;;;;;;9.00;78.78;101138.06;5130759;27;1213634;-81
2022/12/21 10:34:16;;;;;;;0.77;0.77;;;;;;;9.06;78.48;101126.56;5153478;27;20031;-81
2022/12/21 10:36:44;;;;;;;0.90;0.65;;;;;;;9.08;78.53;101135.34;5127775;28;20048;-81
2022/12/21 10:39:15;;;;;;;1.35;1.25;;;;;;;9.11;78.44;101124.75;5131280;27;20023;-81
2022/12/21 10:41:47;;;;;;;0.20;0.20;;;;;;;9.06;78.37;101129.22;5123756;28;20121;-82
2022/12/21 10:44:14;;;;;;;3.00;2.00;;;;;;;9.13;78.55;101124.72;5132424;28;20577;-83
2022/12/21 10:46:40;;;;;;;0.68;0.68;;;;;;;9.19;78.11;101127.31;5132289;27;20379;-81
2022/12/21 10:49:33;;;;;;;3.90;3.00;;;;;;;9.12;78.10;101125.63;5127253;28;20028;-81
2022/12/21 10:52:19;;;;;;;0.15;0.15;;;;;;;9.06;78.08;101124.78;5117820;28;20123;-82
2022/12/21 10:54:48;;;;;;;0.35;0.35;;;;;;;9.01;77.67;101129.25;5119182;27;20111;-82
2022/12/21 10:57:15;;;;;;;1.58;1.48;;;;;;;9.10;78.27;101120.34;5112582;28;20088;-82
2022/12/21 10:59:42;;;;;;;2.72;0.85;;;;;;;9.02;78.06;101125.72;5116750;27;20027;-83
2022/12/21 11:02:32;;;;;;;0.43;0.43;;;;;;;9.16;78.15;101117.66;5117994;28;20039;-82
2022/12/21 11:04:58;;;;;;;0.47;0.47;;;;;;;9.09;77.39;101117.72;5121371;28;20028;-82
2022/12/21 11:07:28;;;;;;;0.73;0.73;;;;;;;9.13;77.75;101119.44;5123831;28;20043;-82
2022/12/21 11:09:59;;;;;;;0.28;0.28;;;;;;;9.10;77.92;101117.72;5125346;28;20035;-82
2022/12/21 11:12:26;;;;;;;0.32;0.32;;;;;;;9.07;77.72;101113.31;5139725;28;20031;-81
2022/12/21 11:14:54;;;;;;;1.40;1.38;;;;;;;9.01;77.96;101117.78;5125846;27;20038;-83
2022/12/21 11:17:26;;;;;;;1.60;1.55;;;;;;;9.06;77.86;101114.22;5128983;28;20028;-82
2022/12/21 11:20:13;;;;;;;0.52;0.52;;;;;;;9.09;77.68;101115.09;5132819;27;20023;-83
2022/12/21 11:22:44;;;;;;;1.90;1.80;;;;;;;9.04;77.99;101113.34;5122184;28;20019;-82
2022/12/21 11:25:23;;;;;;;0.20;0.20;;;;;;;9.10;77.50;101116.81;5118572;27;20533;-82
2022/12/21 11:27:54;;;;;;;2.17;2.08;;;;;;;9.04;77.68;101129.19;5122198;28;20019;-81
2022/12/21 11:30:24;;;;;;;0.73;0.73;;;;;;;9.15;77.69;101122.97;5120298;27;20047;-82
2022/12/21 11:32:54;;;;;;;0.30;0.30;;;;;;;9.04;77.97;101118.63;5129796;28;20027;-84
2022/12/21 11:38:13;;;;;;;1.15;1.15;;;;;;;9.14;77.60;101097.41;5044575;27;20418;-82
2022/12/21 11:40:58;;;;;;;1.02;0.98;;;;;;;9.17;77.59;101108.84;5042417;28;20575;-81
2022/12/21 11:43:25;;;;;;;4.18;2.17;;;;;;;9.18;77.64;101099.13;5044643;27;20116;-82
2022/12/21 11:51:34;;;;;;;2.40;1.33;;;;;;;9.35;77.41;101086.59;5103786;27;20135;-81
2022/12/21 11:54:40;;;;;;;0.73;0.73;;;;;;;9.44;76.75;101060.94;5076139;28;20149;-82
2022/12/21 11:57:34;;;;;;;0.40;0.40;;;;;;;9.41;77.18;101074.19;5057306;28;20045;-82
2022/12/21 12:14:17;;;;;;;0.35;0.20;;;;;;;9.47;76.17;101042.38;5054368;28;20418;-82
2022/12/21 12:19:47;;;;;;;0.95;0.95;;;;;;;9.47;76.23;101043.28;5116759;27;1271492;-82
2022/12/21 12:25:34;;;;;;;0.95;0.95;;;;;;;9.49;76.19;101041.47;5110736;27;1278362;-83
2022/12/21 12:28:28;;;;;;;0.90;0.88;;;;;;;9.51;76.06;101044.13;5137557;28;20039;-82
2022/12/21 12:34:22;;;;;;;0.82;0.82;;;;;;;9.54;75.87;101042.31;5162011;27;20387;-82
2022/12/21 12:37:29;;;;;;;0.45;0.45;;;;;;;9.60;75.48;101032.53;5148958;27;20039;-81
2022/12/21 12:40:29;;;;;;;0.30;0.30;;;;;;;9.61;75.24;101027.22;5139192;28;20043;-82
2022/12/21 12:45:59;;;;;;;0.57;0.52;;;;;;;9.69;75.46;101012.13;5077548;27;1930964;-81
2022/12/21 12:49:00;;;;;;;0.20;0.20;;;;;;;9.80;75.04;100997.88;5139980;28;20039;-81
2022/12/21 12:51:37;;;;;;;0.30;0.30;;;;;;;9.84;74.95;100996.91;5134144;28;20087;-81
2022/12/21 12:59:30;;;;;;;1.55;1.45;;;;;;;9.94;74.93;100990.59;5068114;28;20053;-82
2022/12/21 13:10:48;;;;;;;0.35;0.35;;;;;;;10.11;73.97;100978.88;5076837;27;20387;-87
2022/12/21 13:13:37;;;;;;;1.63;1.52;;;;;;;10.12;73.38;100973.56;5063224;28;20411;-86
2022/12/21 13:16:27;;;;;;;0.43;0.43;;;;;;;10.09;73.77;100963.00;5077501;28;20104;-87
2022/12/21 13:19:00;;;;;;;0.38;0.38;;;;;;;10.06;72.96;100972.78;5069720;28;20025;-86
2022/12/21 13:21:29;;;;;;;3.55;3.20;;;;;;;10.07;73.36;100970.13;5088750;28;20123;-86
2022/12/21 13:23:59;;;;;;;0.25;0.25;;;;;;;10.09;73.18;100972.72;5073537;28;20032;-87
2022/12/21 13:26:29;;;;;;;0.70;0.70;;;;;;;10.15;73.24;100962.03;5069766;28;20108;-87